Time;durP1;ratioP1;P1;durP2;ratioP2;P2;SDS_P1;SDS_P2;PMS_P1;PMS_P2;Temp;Humidity;BMP_temperature;BMP_pressure;BME280_temperature;BME280_humidity;BME280_pressure;Samples;Min_cycle;Max_cycle;Signal;HPM_P1;HPM_P2
2021/05/15 00:01:10;;;;;;;;;;;;;;;;;;5030745;28;19925;-67
2021/05/15 00:03:37;;;;;;;;;;;;;;;;;;5029220;28;20427;-67
2021/05/15 00:06:03;;;;;;;;;;;;;;;;;;5029350;28;19940;-67
2021/05/15 00:08:30;;;;;;;;;;;;;;;;;;5031315;28;19925;-68
2021/05/15 00:10:56;;;;;;;;;;;;;;;;;;5031380;28;20338;-68
2021/05/15 00:13:24;;;;;;;;;;;;;;;;;;5024651;28;19937;-68
2021/05/15 00:15:50;;;;;;;;;;;;;;;;;;5028538;28;20397;-68
2021/05/15 00:18:17;;;;;;;;;;;;;;;;;;5028135;28;20035;-68
2021/05/15 00:20:44;;;;;;;;;;;;;;;;;;5029289;28;19948;-67
2021/05/15 00:23:10;;;;;;;;;;;;;;;;;;5022301;28;20292;-67
2021/05/15 00:25:37;;;;;;;;;;;;;;;;;;5030172;28;19925;-66
2021/05/15 00:28:03;;;;;;;;;;;;;;;;;;5027954;28;20292;-67
2021/05/15 00:30:30;;;;;;;;;;;;;;;;;;5029068;28;19975;-68
2021/05/15 00:32:56;;;;;;;;;;;;;;;;;;5030134;28;19925;-67
2021/05/15 00:35:22;;;;;;;;;;;;;;;;;;5030070;28;19937;-68
2021/05/15 00:37:49;;;;;;;;;;;;;;;;;;5027654;28;20343;-67
2021/05/15 00:40:15;;;;;;;;;;;;;;;;;;5029553;28;19933;-68
2021/05/15 00:42:42;;;;;;;;;;;;;;;;;;5024722;28;19925;-66
2021/05/15 00:45:09;;;;;;;;;;;;;;;;;;5030355;28;19971;-67
2021/05/15 00:47:39;;;;;;;;;;;;;;;;;;5052840;22;20414;-68
2021/05/15 00:50:05;;;;;;;;;;;;;;;;;;5065972;28;19986;-68
2021/05/15 00:52:34;;;;;;;;;;;;;;;;;;5066513;28;19928;-68
2021/05/15 00:55:00;;;;;;;;;;;;;;;;;;5058930;28;19972;-68
2021/05/15 00:57:27;;;;;;;;;;;;;;;;;;5052322;28;20426;-68
2021/05/15 00:59:53;;;;;;;;;;;;;;;;;;5054194;28;19928;-69
2021/05/15 01:02:20;;;;;;;;;;;;;;;;;;5056373;28;19936;-68
2021/05/15 01:04:46;;;;;;;;;;;;;;;;;;5061707;28;19924;-68
2021/05/15 01:07:13;;;;;;;;;;;;;;;;;;5050507;28;19929;-68
2021/05/15 01:09:39;;;;;;;;;;;;;;;;;;5054148;28;20479;-69
2021/05/15 01:12:06;;;;;;;;;;;;;;;;;;5059820;28;19925;-68
2021/05/15 01:14:32;;;;;;;;;;;;;;;;;;5061512;28;19935;-68
2021/05/15 01:16:58;;;;;;;;;;;;;;;;;;5052413;28;20700;-68
2021/05/15 01:19:25;;;;;;;;;;;;;;;;;;5052813;28;19964;-68
2021/05/15 01:21:51;;;;;;;;;;;;;;;;;;5062352;28;19999;-68
2021/05/15 01:24:18;;;;;;;;;;;;;;;;;;5054229;28;19924;-68
2021/05/15 01:26:44;;;;;;;;;;;;;;;;;;5059744;28;19925;-68
2021/05/15 01:29:11;;;;;;;;;;;;;;;;;;5059270;28;19931;-68
2021/05/15 01:31:38;;;;;;;;;;;;;;;;;;5064078;28;19929;-68
2021/05/15 01:34:04;;;;;;;;;;;;;;;;;;5063495;28;19987;-67
2021/05/15 01:36:33;;;;;;;;;;;;;;;;;;5062520;28;19925;-68
2021/05/15 01:39:00;;;;;;;;;;;;;;;;;;5060873;28;19931;-67
2021/05/15 01:41:26;;;;;;;;;;;;;;;;;;5064067;28;20431;-68
2021/05/15 01:43:53;;;;;;;;;;;;;;;;;;5055457;28;19925;-67
2021/05/15 01:46:19;;;;;;;;;;;;;;;;;;5056455;28;19932;-68
2021/05/15 01:48:46;;;;;;;;;;;;;;;;;;5062060;28;19982;-68
2021/05/15 01:51:12;;;;;;;;;;;;;;;;;;5068244;28;19929;-68
2021/05/15 01:53:39;;;;;;;;;;;;;;;;;;5060025;28;20342;-67
2021/05/15 01:56:05;;;;;;;;;;;;;;;;;;5063712;28;19932;-67
2021/05/15 01:58:32;;;;;;;;;;;;;;;;;;5056717;28;19935;-67
2021/05/15 02:00:58;;;;;;;;;;;;;;;;;;5051409;28;20288;-67
2021/05/15 02:03:25;;;;;;;;;;;;;;;;;;5059242;28;19929;-67
2021/05/15 02:05:51;;;;;;;;;;;;;;;;;;5054179;28;20293;-68
2021/05/15 02:08:18;;;;;;;;;;;;;;;;;;5054298;28;19931;-68
2021/05/15 02:10:44;;;;;;;;;;;;;;;;;;5056222;28;19933;-68
2021/05/15 02:13:11;;;;;;;;;;;;;;;;;;5058873;28;19936;-68
2021/05/15 02:15:37;;;;;;;;;;;;;;;;;;5058201;28;20373;-68
2021/05/15 02:18:04;;;;;;;;;;;;;;;;;;5063478;28;19924;-68
2021/05/15 02:20:30;;;;;;;;;;;;;;;;;;5058594;28;19932;-68
2021/05/15 02:22:57;;;;;;;;;;;;;;;;;;5058747;28;19924;-68
2021/05/15 02:25:23;;;;;;;;;;;;;;;;;;5050971;28;20024;-68
2021/05/15 02:27:50;;;;;;;;;;;;;;;;;;5065429;28;19924;-68
2021/05/15 02:30:16;;;;;;;;;;;;;;;;;;5046957;28;19947;-68
2021/05/15 02:32:43;;;;;;;;;;;;;;;;;;5057675;28;19987;-68
2021/05/15 02:35:09;;;;;;;;;;;;;;;;;;5056647;28;19964;-68
2021/05/15 02:37:36;;;;;;;;;;;;;;;;;;5065966;28;19925;-68
2021/05/15 02:40:02;;;;;;;;;;;;;;;;;;5063764;28;19932;-67
2021/05/15 02:42:29;;;;;;;;;;;;;;;;;;5058441;28;20372;-68
2021/05/15 02:44:55;;;;;;;;;;;;;;;;;;5058943;28;19925;-67
2021/05/15 02:47:22;;;;;;;;;;;;;;;;;;5057818;28;19929;-67
2021/05/15 02:49:48;;;;;;;;;;;;;;;;;;5051147;28;20007;-67
2021/05/15 02:52:15;;;;;;;;;;;;;;;;;;5058361;28;19924;-67
2021/05/15 02:54:41;;;;;;;;;;;;;;;;;;5054661;28;19931;-67
2021/05/15 02:57:08;;;;;;;;;;;;;;;;;;5051446;28;19925;-66
2021/05/15 02:59:34;;;;;;;;;;;;;;;;;;5062579;28;19930;-67
2021/05/15 03:02:00;;;;;;;;;;;;;;;;;;5062901;28;19924;-67
2021/05/15 03:04:27;;;;;;;;;;;;;;;;;;5061438;28;19936;-69
2021/05/15 03:06:53;;;;;;;;;;;;;;;;;;5059297;28;19932;-67
2021/05/15 03:09:20;;;;;;;;;;;;;;;;;;5056862;28;19931;-67
2021/05/15 03:11:46;;;;;;;;;;;;;;;;;;5053577;28;20376;-67
2021/05/15 03:14:13;;;;;;;;;;;;;;;;;;5052420;28;20020;-68
2021/05/15 03:16:39;;;;;;;;;;;;;;;;;;5056643;28;19928;-68
2021/05/15 03:19:06;;;;;;;;;;;;;;;;;;5063719;28;19931;-68
2021/05/15 03:21:32;;;;;;;;;;;;;;;;;;5058536;28;19978;-68
2021/05/15 03:23:59;;;;;;;;;;;;;;;;;;5053530;28;19954;-68
2021/05/15 03:26:25;;;;;;;;;;;;;;;;;;5048890;28;19970;-69
2021/05/15 03:28:52;;;;;;;;;;;;;;;;;;5055359;28;19943;-68
2021/05/15 03:31:18;;;;;;;;;;;;;;;;;;5060468;28;19931;-68
2021/05/15 03:33:45;;;;;;;;;;;;;;;;;;5055294;28;19925;-68
2021/05/15 03:36:11;;;;;;;;;;;;;;;;;;5060997;28;19929;-68
2021/05/15 03:38:38;;;;;;;;;;;;;;;;;;5058283;28;19986;-68
2021/05/15 03:41:04;;;;;;;;;;;;;;;;;;5048981;28;19925;-68
2021/05/15 03:43:31;;;;;;;;;;;;;;;;;;5058843;28;19925;-69
2021/05/15 03:45:57;;;;;;;;;;;;;;;;;;5058577;28;19932;-68
2021/05/15 03:48:24;;;;;;;;;;;;;;;;;;5062918;28;20265;-68
2021/05/15 03:50:50;;;;;;;;;;;;;;;;;;5063490;28;19925;-67
2021/05/15 03:53:16;;;;;;;;;;;;;;;;;;5059035;28;19924;-67
2021/05/15 03:55:43;;;;;;;;;;;;;;;;;;5057613;28;19924;-67
2021/05/15 03:58:09;;;;;;;;;;;;;;;;;;5053814;28;20372;-67
2021/05/15 04:00:37;;;;;;;;;;;;;;;;;;5057287;28;19924;-67
2021/05/15 04:03:07;;;;;;;;;;;;;;;;;;5057943;28;19925;-67
2021/05/15 04:05:34;;;;;;;;;;;;;;;;;;5055198;28;19975;-67
2021/05/15 04:08:00;;;;;;;;;;;;;;;;;;5058105;28;19924;-67
2021/05/15 04:10:27;;;;;;;;;;;;;;;;;;5057405;28;20320;-67
2021/05/15 04:13:02;;;;;;;;;;;;;;;;;;5054219;28;20360;-67
2021/05/15 04:15:38;;;;;;;;;;;;;;;;;;5052710;28;19956;-67
2021/05/15 04:18:04;;;;;;;;;;;;;;;;;;5057589;28;19928;-69
2021/05/15 04:20:31;;;;;;;;;;;;;;;;;;5060567;28;19931;-67
2021/05/15 04:22:57;;;;;;;;;;;;;;;;;;5052987;28;19941;-68
2021/05/15 04:25:24;;;;;;;;;;;;;;;;;;5052320;28;19925;-67
2021/05/15 04:27:50;;;;;;;;;;;;;;;;;;5054262;28;20049;-67
2021/05/15 04:30:16;;;;;;;;;;;;;;;;;;5053757;28;20108;-67
2021/05/15 04:32:43;;;;;;;;;;;;;;;;;;5051075;28;19947;-67
2021/05/15 04:35:09;;;;;;;;;;;;;;;;;;5053696;28;20011;-67
2021/05/15 04:37:36;;;;;;;;;;;;;;;;;;5056455;28;19925;-68
2021/05/15 04:40:02;;;;;;;;;;;;;;;;;;5059614;28;20015;-68
2021/05/15 04:42:29;;;;;;;;;;;;;;;;;;5048740;28;19931;-68
2021/05/15 04:44:55;;;;;;;;;;;;;;;;;;5052179;28;19925;-68
2021/05/15 04:47:22;;;;;;;;;;;;;;;;;;5059769;28;19974;-68
2021/05/15 04:49:48;;;;;;;;;;;;;;;;;;5057143;28;19959;-68
2021/05/15 04:52:14;;;;;;;;;;;;;;;;;;5056162;28;20351;-68
2021/05/15 04:54:41;;;;;;;;;;;;;;;;;;5057652;28;20377;-68
2021/05/15 04:57:07;;;;;;;;;;;;;;;;;;5054649;28;19925;-68
2021/05/15 04:59:36;;;;;;;;;;;;;;;;;;5056711;28;19932;-68
2021/05/15 05:02:02;;;;;;;;;;;;;;;;;;5049994;28;19978;-68
2021/05/15 05:04:29;;;;;;;;;;;;;;;;;;5059391;28;19929;-68
2021/05/15 05:06:55;;;;;;;;;;;;;;;;;;5057662;28;19929;-68
2021/05/15 05:09:22;;;;;;;;;;;;;;;;;;5059850;28;19929;-68
2021/05/15 05:11:48;;;;;;;;;;;;;;;;;;5055871;28;20407;-68
2021/05/15 05:14:15;;;;;;;;;;;;;;;;;;5053405;28;19924;-70
2021/05/15 05:16:41;;;;;;;;;;;;;;;;;;5064765;28;20393;-67
2021/05/15 05:19:11;;;;;;;;;;;;;;;;;;5054697;28;19925;-67
2021/05/15 05:21:37;;;;;;;;;;;;;;;;;;5052205;28;19925;-68
2021/05/15 05:24:04;;;;;;;;;;;;;;;;;;5057285;28;20176;-68
2021/05/15 05:26:34;;;;;;;;;;;;;;;;;;5052833;28;19925;-68
2021/05/15 05:29:04;;;;;;;;;;;;;;;;;;5048217;28;20341;-68
2021/05/15 05:31:30;;;;;;;;;;;;;;;;;;5051389;28;19940;-68
2021/05/15 05:33:57;;;;;;;;;;;;;;;;;;5053124;28;19925;-68
2021/05/15 05:36:23;;;;;;;;;;;;;;;;;;5053043;28;19925;-69
2021/05/15 05:38:50;;;;;;;;;;;;;;;;;;5051943;28;19978;-68
2021/05/15 05:41:20;;;;;;;;;;;;;;;;;;5049166;28;20019;-68
2021/05/15 05:43:46;;;;;;;;;;;;;;;;;;5051493;28;19925;-68
2021/05/15 05:46:13;;;;;;;;;;;;;;;;;;5058613;28;19932;-69
2021/05/15 05:48:39;;;;;;;;;;;;;;;;;;5057702;28;19931;-69
2021/05/15 05:51:05;;;;;;;;;;;;;;;;;;5061616;28;19935;-69
2021/05/15 05:53:32;;;;;;;;;;;;;;;;;;5063309;28;20015;-67
2021/05/15 05:55:58;;;;;;;;;;;;;;;;;;5057698;28;19924;-67
2021/05/15 05:58:25;;;;;;;;;;;;;;;;;;5062135;28;19947;-67
2021/05/15 06:00:51;;;;;;;;;;;;;;;;;;5058305;28;19936;-69
2021/05/15 06:03:18;;;;;;;;;;;;;;;;;;5054458;28;20389;-69
2021/05/15 06:05:44;;;;;;;;;;;;;;;;;;5061116;28;19924;-68
2021/05/15 06:08:11;;;;;;;;;;;;;;;;;;5055162;28;19981;-68
2021/05/15 06:10:38;;;;;;;;;;;;;;;;;;5053872;28;19932;-68
2021/05/15 06:13:04;;;;;;;;;;;;;;;;;;5062269;28;19925;-68
2021/05/15 06:15:31;;;;;;;;;;;;;;;;;;5064008;28;20359;-68
2021/05/15 06:17:57;;;;;;;;;;;;;;;;;;5060799;28;19925;-67
2021/05/15 06:20:24;;;;;;;;;;;;;;;;;;5057006;28;19931;-68
2021/05/15 06:22:50;;;;;;;;;;;;;;;;;;5053403;28;19925;-68
2021/05/15 06:25:17;;;;;;;;;;;;;;;;;;5066789;28;20451;-68
2021/05/15 06:27:43;;;;;;;;;;;;;;;;;;5054696;28;19925;-68
2021/05/15 06:30:10;;;;;;;;;;;;;;;;;;5052617;28;20415;-67
2021/05/15 06:32:36;;;;;;;;;;;;;;;;;;5065006;28;19950;-68
2021/05/15 06:35:03;;;;;;;;;;;;;;;;;;5055492;28;19965;-67
2021/05/15 06:37:29;;;;;;;;;;;;;;;;;;5055101;28;19933;-67
2021/05/15 06:39:56;;;;;;;;;;;;;;;;;;5063112;28;19924;-67
2021/05/15 06:42:22;;;;;;;;;;;;;;;;;;5051449;28;20015;-67
2021/05/15 06:44:49;;;;;;;;;;;;;;;;;;5060129;28;19936;-67
2021/05/15 06:47:17;;;;;;;;;;;;;;;;;;5056239;28;19924;-67
2021/05/15 06:49:45;;;;;;;;;;;;;;;;;;5060429;28;20015;-67
2021/05/15 06:52:12;;;;;;;;;;;;;;;;;;5057194;28;20373;-67
2021/05/15 06:54:38;;;;;;;;;;;;;;;;;;5054610;28;19933;-67
2021/05/15 06:57:06;;;;;;;;;;;;;;;;;;5061036;28;19925;-68
2021/05/15 06:59:32;;;;;;;;;;;;;;;;;;5063720;28;19924;-67
2021/05/15 07:01:59;;;;;;;;;;;;;;;;;;5050031;28;20008;-67
2021/05/15 07:04:25;;;;;;;;;;;;;;;;;;5057424;28;20426;-67
2021/05/15 07:06:52;;;;;;;;;;;;;;;;;;5058882;28;20004;-68
2021/05/15 07:09:18;;;;;;;;;;;;;;;;;;5054393;28;19931;-67
2021/05/15 07:11:45;;;;;;;;;;;;;;;;;;5050629;28;20179;-66
2021/05/15 07:14:11;;;;;;;;;;;;;;;;;;5054914;28;19928;-66
2021/05/15 07:16:38;;;;;;;;;;;;;;;;;;5054259;28;20380;-66
2021/05/15 07:19:04;;;;;;;;;;;;;;;;;;5053540;28;19925;-66
2021/05/15 07:21:31;;;;;;;;;;;;;;;;;;5062046;28;19956;-66
2021/05/15 07:23:57;;;;;;;;;;;;;;;;;;5055442;28;19933;-66
2021/05/15 07:26:24;;;;;;;;;;;;;;;;;;5064503;28;19925;-67
2021/05/15 07:28:50;;;;;;;;;;;;;;;;;;5060028;28;19932;-66
2021/05/15 07:31:17;;;;;;;;;;;;;;;;;;5054649;28;19983;-67
2021/05/15 07:33:43;;;;;;;;;;;;;;;;;;5053932;28;19924;-66
2021/05/15 07:36:12;;;;;;;;;;;;;;;;;;5062049;28;19933;-67
2021/05/15 07:38:40;;;;;;;;;;;;;;;;;;5059499;28;19933;-67
2021/05/15 07:41:06;;;;;;;;;;;;;;;;;;5053078;28;20308;-67
2021/05/15 07:43:35;;;;;;;;;;;;;;;;;;5053749;28;19935;-65
2021/05/15 07:46:01;;;;;;;;;;;;;;;;;;5058976;28;19929;-67
2021/05/15 07:48:29;;;;;;;;;;;;;;;;;;5062691;28;19924;-67
2021/05/15 07:50:58;;;;;;;;;;;;;;;;;;5053609;28;19970;-67
2021/05/15 07:53:25;;;;;;;;;;;;;;;;;;5055825;28;20019;-67
2021/05/15 07:55:51;;;;;;;;;;;;;;;;;;5055339;28;20388;-68
2021/05/15 07:58:18;;;;;;;;;;;;;;;;;;5056918;28;19924;-67
2021/05/15 08:00:44;;;;;;;;;;;;;;;;;;5057625;28;20007;-67
2021/05/15 08:03:11;;;;;;;;;;;;;;;;;;5059729;28;19929;-67
2021/05/15 08:05:37;;;;;;;;;;;;;;;;;;5056204;28;19925;-66
2021/05/15 08:08:04;;;;;;;;;;;;;;;;;;5057656;28;20326;-65
2021/05/15 08:10:30;;;;;;;;;;;;;;;;;;5062114;28;19976;-66
2021/05/15 08:12:57;;;;;;;;;;;;;;;;;;5057696;28;19929;-67
2021/05/15 08:15:23;;;;;;;;;;;;;;;;;;5055862;28;20028;-66
2021/05/15 08:17:50;;;;;;;;;;;;;;;;;;5055810;28;19928;-68
2021/05/15 08:20:16;;;;;;;;;;;;;;;;;;5047656;28;20390;-66
2021/05/15 08:22:43;;;;;;;;;;;;;;;;;;5055211;28;19924;-67
2021/05/15 08:25:09;;;;;;;;;;;;;;;;;;5057958;28;19928;-67
2021/05/15 08:27:38;;;;;;;;;;;;;;;;;;5056081;28;19924;-67
2021/05/15 08:30:05;;;;;;;;;;;;;;;;;;5058083;28;19964;-67
2021/05/15 08:32:33;;;;;;;;;;;;;;;;;;5051088;28;19936;-67
2021/05/15 08:34:59;;;;;;;;;;;;;;;;;;5053859;28;20478;-67
2021/05/15 08:37:26;;;;;;;;;;;;;;;;;;5058965;28;19958;-67
2021/05/15 08:39:52;;;;;;;;;;;;;;;;;;5050903;28;20007;-67
2021/05/15 08:42:19;;;;;;;;;;;;;;;;;;5049236;28;19925;-68
2021/05/15 08:44:45;;;;;;;;;;;;;;;;;;5059311;28;19947;-67
2021/05/15 08:47:12;;;;;;;;;;;;;;;;;;5057876;28;20019;-68
2021/05/15 08:49:38;;;;;;;;;;;;;;;;;;5054865;28;19924;-67
2021/05/15 08:52:05;;;;;;;;;;;;;;;;;;5053396;28;19924;-67
2021/05/15 08:54:31;;;;;;;;;;;;;;;;;;5052320;28;19929;-67
2021/05/15 08:56:58;;;;;;;;;;;;;;;;;;5061475;28;20219;-68
2021/05/15 08:59:24;;;;;;;;;;;;;;;;;;5059713;28;19935;-67
2021/05/15 09:01:51;;;;;;;;;;;;;;;;;;5057553;28;20307;-67
2021/05/15 09:04:18;;;;;;;;;;;;;;;;;;5061034;28;19930;-68
2021/05/15 09:06:44;;;;;;;;;;;;;;;;;;5062521;28;20050;-65
2021/05/15 09:09:11;;;;;;;;;;;;;;;;;;5048597;28;19955;-67
2021/05/15 09:11:37;;;;;;;;;;;;;;;;;;5052081;28;19925;-66
2021/05/15 09:14:04;;;;;;;;;;;;;;;;;;5050928;28;20332;-66
2021/05/15 09:16:30;;;;;;;;;;;;;;;;;;5053736;28;20315;-66
2021/05/15 09:18:57;;;;;;;;;;;;;;;;;;5040799;28;19925;-66
2021/05/15 09:21:25;;;;;;;;;;;;;;;;;;5050233;28;19928;-66
2021/05/15 09:23:51;;;;;;;;;;;;;;;;;;5036153;28;19929;-65
2021/05/15 09:26:18;;;;;;;;;;;;;;;;;;5054974;28;19924;-66
2021/05/15 09:28:44;;;;;;;;;;;;;;;;;;5037479;28;19931;-66
2021/05/15 09:31:11;;;;;;;;;;;;;;;;;;5043888;28;19939;-65
2021/05/15 09:33:37;;;;;;;;;;;;;;;;;;5050352;28;19944;-66
2021/05/15 09:36:04;;;;;;;;;;;;;;;;;;5050749;28;19924;-66
2021/05/15 09:38:30;;;;;;;;;;;;;;;;;;5049663;28;20305;-66
2021/05/15 09:40:57;;;;;;;;;;;;;;;;;;5053528;28;19932;-66
2021/05/15 09:43:23;;;;;;;;;;;;;;;;;;5051986;28;20035;-66
2021/05/15 09:45:50;;;;;;;;;;;;;;;;;;5054366;28;19991;-66
2021/05/15 09:50:58;;;;;;;;;;;;;;;;;;5053533;28;19925;-65
2021/05/15 09:53:25;;;;;;;;;;;;;;;;;;5060118;28;20124;-66
2021/05/15 09:55:51;;;;;;;;;;;;;;;;;;5052776;28;20020;-67
2021/05/15 09:58:18;;;;;;;;;;;;;;;;;;5055311;28;20528;-66
2021/05/15 10:00:44;;;;;;;;;;;;;;;;;;5048213;28;19931;-66
2021/05/15 10:03:11;;;;;;;;;;;;;;;;;;5050423;28;19955;-66
2021/05/15 10:05:37;;;;;;;;;;;;;;;;;;5050049;28;19978;-65
2021/05/15 10:08:04;;;;;;;;;;;;;;;;;;5061320;28;19946;-65
2021/05/15 10:10:30;;;;;;;;;;;;;;;;;;5056290;28;19925;-65
2021/05/15 10:12:57;;;;;;;;;;;;;;;;;;5050695;28;20348;-66
2021/05/15 10:15:23;;;;;;;;;;;;;;;;;;5052484;28;19924;-67
2021/05/15 10:17:50;;;;;;;;;;;;;;;;;;5066264;28;19924;-67
2021/05/15 10:20:16;;;;;;;;;;;;;;;;;;5054919;28;19931;-67
2021/05/15 10:22:42;;;;;;;;;;;;;;;;;;5051558;28;19925;-67
2021/05/15 10:25:09;;;;;;;;;;;;;;;;;;5055011;28;19977;-66
2021/05/15 10:27:36;;;;;;;;;;;;;;;;;;5060399;28;19979;-67
2021/05/15 10:30:03;;;;;;;;;;;;;;;;;;5055056;28;19929;-67
2021/05/15 10:32:30;;;;;;;;;;;;;;;;;;5053084;28;20389;-66
2021/05/15 10:34:57;;;;;;;;;;;;;;;;;;5059271;28;19928;-67
2021/05/15 10:37:23;;;;;;;;;;;;;;;;;;5049331;28;19925;-66
2021/05/15 10:39:50;;;;;;;;;;;;;;;;;;5055213;28;19924;-66
2021/05/15 10:42:16;;;;;;;;;;;;;;;;;;5058985;28;19924;-67
2021/05/15 10:44:43;;;;;;;;;;;;;;;;;;5060928;28;20300;-65
2021/05/15 10:47:09;;;;;;;;;;;;;;;;;;5061235;28;20264;-67
2021/05/15 10:49:36;;;;;;;;;;;;;;;;;;5053169;28;19933;-65
2021/05/15 10:52:02;;;;;;;;;;;;;;;;;;5056246;28;19929;-65
2021/05/15 10:54:29;;;;;;;;;;;;;;;;;;5058182;28;19932;-65
2021/05/15 10:56:55;;;;;;;;;;;;;;;;;;5054023;28;20320;-66
2021/05/15 10:59:22;;;;;;;;;;;;;;;;;;5056072;28;19931;-65
2021/05/15 11:01:48;;;;;;;;;;;;;;;;;;5057451;28;19933;-65
2021/05/15 11:04:15;;;;;;;;;;;;;;;;;;5060388;28;20468;-65
2021/05/15 11:06:41;;;;;;;;;;;;;;;;;;5056224;28;19929;-67
2021/05/15 11:09:08;;;;;;;;;;;;;;;;;;5057085;28;20391;-65
2021/05/15 11:11:34;;;;;;;;;;;;;;;;;;5057399;28;19931;-67
2021/05/15 11:14:01;;;;;;;;;;;;;;;;;;5049963;28;19928;-68
2021/05/15 11:16:29;;;;;;;;;;;;;;;;;;5060988;28;20293;-65
2021/05/15 11:18:55;;;;;;;;;;;;;;;;;;5054705;28;20003;-66
2021/05/15 11:21:22;;;;;;;;;;;;;;;;;;5056651;28;20003;-66
2021/05/15 11:23:48;;;;;;;;;;;;;;;;;;5056939;28;20026;-68
2021/05/15 11:26:19;;;;;;;;;;;;;;;;;;5047809;28;20474;-66
2021/05/15 11:28:47;;;;;;;;;;;;;;;;;;5051638;28;20373;-66
2021/05/15 11:31:17;;;;;;;;;;;;;;;;;;5058009;28;20011;-66
2021/05/15 11:33:44;;;;;;;;;;;;;;;;;;5049058;28;19924;-66
2021/05/15 11:36:10;;;;;;;;;;;;;;;;;;5051253;28;20259;-66
2021/05/15 11:38:37;;;;;;;;;;;;;;;;;;5059859;28;19925;-65
2021/05/15 11:41:04;;;;;;;;;;;;;;;;;;5059210;28;19924;-66
2021/05/15 11:43:31;;;;;;;;;;;;;;;;;;5050659;28;20023;-66
2021/05/15 11:45:58;;;;;;;;;;;;;;;;;;5052246;28;19924;-66
2021/05/15 11:48:24;;;;;;;;;;;;;;;;;;5051061;28;20380;-66
2021/05/15 11:50:51;;;;;;;;;;;;;;;;;;5053712;28;19948;-66
2021/05/15 11:53:17;;;;;;;;;;;;;;;;;;5058916;28;20419;-65
2021/05/15 11:55:44;;;;;;;;;;;;;;;;;;5051998;28;19939;-65
2021/05/15 11:58:10;;;;;;;;;;;;;;;;;;5051472;28;19960;-65
2021/05/15 12:00:37;;;;;;;;;;;;;;;;;;5049996;28;20672;-66
2021/05/15 12:03:04;;;;;;;;;;;;;;;;;;5048947;28;19933;-65
2021/05/15 12:05:30;;;;;;;;;;;;;;;;;;5040932;28;19932;-66
2021/05/15 12:07:58;;;;;;;;;;;;;;;;;;5049998;28;19947;-67
2021/05/15 12:10:24;;;;;;;;;;;;;;;;;;5045146;28;19929;-66
2021/05/15 12:12:51;;;;;;;;;;;;;;;;;;5041803;28;19935;-67
2021/05/15 12:15:17;;;;;;;;;;;;;;;;;;5041683;28;20331;-67
2021/05/15 12:17:44;;;;;;;;;;;;;;;;;;5045918;28;19948;-67
2021/05/15 12:20:10;;;;;;;;;;;;;;;;;;5050583;28;20020;-66
2021/05/15 12:22:37;;;;;;;;;;;;;;;;;;5042184;28;20012;-66
2021/05/15 12:25:03;;;;;;;;;;;;;;;;;;5044377;28;19932;-66
2021/05/15 12:27:30;;;;;;;;;;;;;;;;;;5044237;28;20292;-65
2021/05/15 12:29:56;;;;;;;;;;;;;;;;;;5046810;28;19933;-66
2021/05/15 12:32:23;;;;;;;;;;;;;;;;;;5042109;28;19932;-66
2021/05/15 12:34:49;;;;;;;;;;;;;;;;;;5044253;28;20373;-67
2021/05/15 12:37:16;;;;;;;;;;;;;;;;;;5045921;28;19940;-67
2021/05/15 12:39:42;;;;;;;;;;;;;;;;;;5046432;28;19925;-66
2021/05/15 12:42:09;;;;;;;;;;;;;;;;;;5043398;28;19932;-66
2021/05/15 12:44:35;;;;;;;;;;;;;;;;;;5046343;28;19931;-65
2021/05/15 12:47:02;;;;;;;;;;;;;;;;;;5044713;28;19979;-66
2021/05/15 12:49:28;;;;;;;;;;;;;;;;;;5046695;28;20403;-66
2021/05/15 12:51:55;;;;;;;;;;;;;;;;;;5045390;28;19931;-67
2021/05/15 12:54:22;;;;;;;;;;;;;;;;;;5044041;28;19932;-66
2021/05/15 12:56:48;;;;;;;;;;;;;;;;;;5041263;28;20422;-66
2021/05/15 12:59:15;;;;;;;;;;;;;;;;;;5045720;28;19932;-66
2021/05/15 13:01:44;;;;;;;;;;;;;;;;;;5043169;28;20396;-66
2021/05/15 13:04:10;;;;;;;;;;;;;;;;;;5047722;28;19937;-66
2021/05/15 13:06:37;;;;;;;;;;;;;;;;;;5046729;28;20453;-66
2021/05/15 13:09:03;;;;;;;;;;;;;;;;;;5044170;28;19947;-66
2021/05/15 13:11:30;;;;;;;;;;;;;;;;;;5046993;28;19931;-66
2021/05/15 13:13:56;;;;;;;;;;;;;;;;;;5046712;28;19925;-66
2021/05/15 13:16:23;;;;;;;;;;;;;;;;;;5055178;28;19973;-66
2021/05/15 13:18:49;;;;;;;;;;;;;;;;;;5049245;28;19956;-66
2021/05/15 13:21:16;;;;;;;;;;;;;;;;;;5042399;28;19976;-67
2021/05/15 13:23:43;;;;;;;;;;;;;;;;;;5045642;28;19991;-67
2021/05/15 13:26:09;;;;;;;;;;;;;;;;;;5044949;28;19956;-65
2021/05/15 13:28:38;;;;;;;;;;;;;;;;;;5048319;28;20390;-68
2021/05/15 13:31:04;;;;;;;;;;;;;;;;;;5042047;28;19933;-67
2021/05/15 13:33:31;;;;;;;;;;;;;;;;;;5046785;28;20388;-67
2021/05/15 13:35:58;;;;;;;;;;;;;;;;;;5050362;28;19980;-67
2021/05/15 13:38:27;;;;;;;;;;;;;;;;;;5051000;28;19929;-68
2021/05/15 13:40:58;;;;;;;;;;;;;;;;;;5051244;28;19939;-68
2021/05/15 13:43:24;;;;;;;;;;;;;;;;;;5045293;28;19968;-67
2021/05/15 13:45:59;;;;;;;;;;;;;;;;;;5046406;28;19955;-68
2021/05/15 13:48:35;;;;;;;;;;;;;;;;;;5049084;28;19925;-67
2021/05/15 13:51:01;;;;;;;;;;;;;;;;;;5043092;28;19991;-67
2021/05/15 13:53:28;;;;;;;;;;;;;;;;;;5041277;28;20082;-66
2021/05/15 13:55:54;;;;;;;;;;;;;;;;;;5042310;28;20110;-66
2021/05/15 13:58:21;;;;;;;;;;;;;;;;;;5049366;28;19935;-66
2021/05/15 14:00:47;;;;;;;;;;;;;;;;;;5046251;28;20055;-66
2021/05/15 14:03:14;;;;;;;;;;;;;;;;;;5045942;28;19937;-66
2021/05/15 14:05:40;;;;;;;;;;;;;;;;;;5045022;28;19972;-66
2021/05/15 14:08:07;;;;;;;;;;;;;;;;;;5047827;28;19963;-66
2021/05/15 14:10:33;;;;;;;;;;;;;;;;;;5049903;28;19931;-66
2021/05/15 14:13:04;;;;;;;;;;;;;;;;;;5039027;28;20423;-64
2021/05/15 14:15:31;;;;;;;;;;;;;;;;;;5049597;28;19928;-66
2021/05/15 14:18:00;;;;;;;;;;;;;;;;;;5045189;28;19928;-66
2021/05/15 14:20:27;;;;;;;;;;;;;;;;;;5048589;28;19925;-67
2021/05/15 14:22:53;;;;;;;;;;;;;;;;;;5055201;28;19929;-66
2021/05/15 14:25:20;;;;;;;;;;;;;;;;;;5039014;28;20362;-68
2021/05/15 14:27:46;;;;;;;;;;;;;;;;;;5044097;28;20039;-67
2021/05/15 14:30:13;;;;;;;;;;;;;;;;;;5048020;28;20019;-67
2021/05/15 14:32:39;;;;;;;;;;;;;;;;;;5047923;28;20381;-66
2021/05/15 14:35:06;;;;;;;;;;;;;;;;;;5053920;28;20373;-67
2021/05/15 14:37:32;;;;;;;;;;;;;;;;;;5045811;28;19929;-65
2021/05/15 14:39:59;;;;;;;;;;;;;;;;;;5048185;28;19951;-65
2021/05/15 14:42:25;;;;;;;;;;;;;;;;;;5040715;28;19931;-65
2021/05/15 14:44:52;;;;;;;;;;;;;;;;;;5050167;28;20011;-65
2021/05/15 14:47:18;;;;;;;;;;;;;;;;;;5045747;28;20465;-65
2021/05/15 14:49:45;;;;;;;;;;;;;;;;;;5048353;28;19926;-66
2021/05/15 14:52:11;;;;;;;;;;;;;;;;;;5049635;28;20407;-66
2021/05/15 14:54:38;;;;;;;;;;;;;;;;;;5047304;28;20347;-65
2021/05/15 14:57:04;;;;;;;;;;;;;;;;;;5050306;28;19924;-66
2021/05/15 14:59:31;;;;;;;;;;;;;;;;;;5051727;28;19928;-66
2021/05/15 15:01:57;;;;;;;;;;;;;;;;;;5045795;28;19932;-65
2021/05/15 15:04:24;;;;;;;;;;;;;;;;;;5046226;28;20385;-65
2021/05/15 15:06:50;;;;;;;;;;;;;;;;;;5037897;28;20278;-65
2021/05/15 15:09:17;;;;;;;;;;;;;;;;;;5046533;28;20309;-65
2021/05/15 15:11:44;;;;;;;;;;;;;;;;;;5045355;28;20019;-65
2021/05/15 15:14:10;;;;;;;;;;;;;;;;;;5043472;28;19935;-65
2021/05/15 15:16:37;;;;;;;;;;;;;;;;;;5044654;28;19943;-66
2021/05/15 15:19:03;;;;;;;;;;;;;;;;;;5044756;28;19932;-66
2021/05/15 15:21:30;;;;;;;;;;;;;;;;;;5041410;28;21670;-66
2021/05/15 15:23:56;;;;;;;;;;;;;;;;;;5046013;28;19925;-65
2021/05/15 15:26:23;;;;;;;;;;;;;;;;;;5043879;28;19968;-65
2021/05/15 15:28:49;;;;;;;;;;;;;;;;;;5050100;28;19933;-65
2021/05/15 15:31:16;;;;;;;;;;;;;;;;;;5047013;28;19925;-65
2021/05/15 15:33:42;;;;;;;;;;;;;;;;;;5048248;28;19979;-66
2021/05/15 15:36:09;;;;;;;;;;;;;;;;;;5046088;28;19983;-66
2021/05/15 15:38:35;;;;;;;;;;;;;;;;;;5046610;28;19932;-67
2021/05/15 15:41:02;;;;;;;;;;;;;;;;;;5045632;28;19924;-66
2021/05/15 15:43:28;;;;;;;;;;;;;;;;;;5050275;28;20425;-67
2021/05/15 15:45:54;;;;;;;;;;;;;;;;;;5054146;28;19924;-66
2021/05/15 15:48:24;;;;;;;;;;;;;;;;;;5049793;28;20336;-66
2021/05/15 15:50:52;;;;;;;;;;;;;;;;;;5055101;28;19928;-67
2021/05/15 15:53:18;;;;;;;;;;;;;;;;;;5055041;28;19975;-66
2021/05/15 15:55:45;;;;;;;;;;;;;;;;;;5055929;28;19924;-65
2021/05/15 15:58:11;;;;;;;;;;;;;;;;;;5050425;28;20484;-67
2021/05/15 16:00:38;;;;;;;;;;;;;;;;;;5056085;28;20345;-67
2021/05/15 16:03:04;;;;;;;;;;;;;;;;;;5046731;28;19929;-67
2021/05/15 16:05:31;;;;;;;;;;;;;;;;;;5059264;28;20328;-67
2021/05/15 16:08:00;;;;;;;;;;;;;;;;;;5055225;28;20509;-67
2021/05/15 16:10:27;;;;;;;;;;;;;;;;;;5063365;28;19967;-66
2021/05/15 16:12:53;;;;;;;;;;;;;;;;;;5064648;28;19924;-67
2021/05/15 16:15:20;;;;;;;;;;;;;;;;;;5047960;28;19932;-67
2021/05/15 16:17:46;;;;;;;;;;;;;;;;;;5042118;28;19987;-69
2021/05/15 16:20:13;;;;;;;;;;;;;;;;;;5042037;28;19932;-66
2021/05/15 16:22:39;;;;;;;;;;;;;;;;;;5046221;28;20021;-66
2021/05/15 16:25:06;;;;;;;;;;;;;;;;;;5046153;28;19931;-67
2021/05/15 16:27:32;;;;;;;;;;;;;;;;;;5048408;28;19968;-66
2021/05/15 16:29:59;;;;;;;;;;;;;;;;;;5048482;28;19925;-68
2021/05/15 16:32:28;;;;;;;;;;;;;;;;;;5044734;28;20020;-67
2021/05/15 16:34:54;;;;;;;;;;;;;;;;;;5048398;28;19956;-67
2021/05/15 16:37:21;;;;;;;;;;;;;;;;;;5053992;28;19954;-67
2021/05/15 16:39:47;;;;;;;;;;;;;;;;;;5053352;28;19931;-66
2021/05/15 16:42:14;;;;;;;;;;;;;;;;;;5052425;28;20011;-67
2021/05/15 16:44:40;;;;;;;;;;;;;;;;;;5048661;28;19956;-66